Time;durP1;ratioP1;P1;durP2;ratioP2;P2;SDS_P1;SDS_P2;PMS_P1;PMS_P2;Temp;Humidity;BMP_temperature;BMP_pressure;BME280_temperature;BME280_humidity;BME280_pressure;Samples;Min_cycle;Max_cycle;Signal;HPM_P1;HPM_P2
2023/07/10 00:00:06;;;;;;;10.32;3.08;;;;;;;;;;5029754;28;25066;-70
2023/07/10 00:02:32;;;;;;;6.30;2.65;;;;;;;;;;5028457;28;25078;-71
2023/07/10 00:04:58;;;;;;;10.63;3.38;;;;;;;;;;5032606;28;25062;-70
2023/07/10 00:07:24;;;;;;;9.60;4.43;;;;;;;;;;5033491;28;25089;-71
2023/07/10 00:09:50;;;;;;;6.70;2.65;;;;;;;;;;5043757;28;25053;-71
2023/07/10 00:12:19;;;;;;;7.15;3.33;;;;;;;;;;5032979;28;25138;-71
2023/07/10 00:14:45;;;;;;;6.63;2.85;;;;;;;;;;5033091;28;25068;-71
2023/07/10 00:17:11;;;;;;;8.52;2.80;;;;;;;;;;5037350;28;25080;-71
2023/07/10 00:19:37;;;;;;;6.10;2.80;;;;;;;;;;5044311;28;25101;-69
2023/07/10 00:22:03;;;;;;;9.48;3.13;;;;;;;;;;5036754;28;25100;-70
2023/07/10 00:24:29;;;;;;;6.75;3.40;;;;;;;;;;5038548;28;25151;-71
2023/07/10 00:26:55;;;;;;;7.05;2.72;;;;;;;;;;5034279;28;25172;-70
2023/07/10 00:29:24;;;;;;;10.23;3.05;;;;;;;;;;5032804;28;25085;-71
2023/07/10 00:31:49;;;;;;;5.55;2.60;;;;;;;;;;5055196;28;25083;-70
2023/07/10 00:34:16;;;;;;;6.07;2.78;;;;;;;;;;5028967;28;25056;-69
2023/07/10 00:36:43;;;;;;;12.23;3.03;;;;;;;;;;5036752;28;25054;-71
2023/07/10 00:39:19;;;;;;;9.98;3.08;;;;;;;;;;5034347;28;25063;-70
2023/07/10 00:41:46;;;;;;;7.47;3.50;;;;;;;;;;5043261;28;25050;-70
2023/07/10 00:44:13;;;;;;;8.18;3.30;;;;;;;;;;5049247;28;25054;-71
2023/07/10 00:46:46;;;;;;;6.30;3.15;;;;;;;;;;5039347;28;25111;-69
2023/07/10 00:49:16;;;;;;;6.07;2.95;;;;;;;;;;5046902;28;25101;-69
2023/07/10 00:51:45;;;;;;;5.00;2.85;;;;;;;;;;5049094;28;25066;-70
2023/07/10 00:54:19;;;;;;;4.88;3.08;;;;;;;;;;5051615;28;25186;-69
2023/07/10 00:56:46;;;;;;;10.52;3.42;;;;;;;;;;5039652;28;25068;-70
2023/07/10 00:59:41;;;;;;;3.97;2.25;;;;;;;;;;5031123;28;25075;-71
2023/07/10 01:02:13;;;;;;;5.93;2.40;;;;;;;;;;5014267;28;25103;-70
2023/07/10 01:04:43;;;;;;;4.63;2.28;;;;;;;;;;5021740;28;25075;-71
2023/07/10 01:07:11;;;;;;;5.65;2.00;;;;;;;;;;5028779;28;25072;-71
2023/07/10 01:09:38;;;;;;;2.90;1.83;;;;;;;;;;5025182;28;25106;-70
2023/07/10 01:12:05;;;;;;;5.85;2.08;;;;;;;;;;5028860;28;25059;-72
2023/07/10 01:14:34;;;;;;;4.80;2.03;;;;;;;;;;5020396;28;25036;-71
2023/07/10 01:17:01;;;;;;;4.82;1.88;;;;;;;;;;5023319;28;25097;-71
2023/07/10 01:19:28;;;;;;;4.03;1.65;;;;;;;;;;5049205;28;25077;-73
2023/07/10 01:21:54;;;;;;;5.32;1.80;;;;;;;;;;5032499;28;25055;-71
2023/07/10 01:24:20;;;;;;;7.85;1.73;;;;;;;;;;5035212;28;25049;-71
2023/07/10 01:26:46;;;;;;;3.75;2.05;;;;;;;;;;5022488;28;25166;-71
2023/07/10 01:29:18;;;;;;;6.05;2.17;;;;;;;;;;5020497;28;25150;-70
2023/07/10 01:31:44;;;;;;;4.70;1.70;;;;;;;;;;5029128;28;25078;-71
2023/07/10 01:34:11;;;;;;;3.40;1.67;;;;;;;;;;5032144;28;25068;-70
2023/07/10 01:36:37;;;;;;;5.97;1.85;;;;;;;;;;5017919;28;25063;-72
2023/07/10 01:39:23;;;;;;;3.08;1.50;;;;;;;;;;5024201;28;25057;-70
2023/07/10 01:41:49;;;;;;;3.08;1.48;;;;;;;;;;5022484;28;25045;-70
2023/07/10 01:44:28;;;;;;;5.97;2.08;;;;;;;;;;5030217;28;25060;-71
2023/07/10 01:46:55;;;;;;;7.43;2.20;;;;;;;;;;5020409;28;25058;-71
2023/07/10 01:49:26;;;;;;;4.20;2.22;;;;;;;;;;5024724;28;25087;-71
2023/07/10 01:51:54;;;;;;;8.70;1.92;;;;;;;;;;5018742;28;25066;-71
2023/07/10 01:54:20;;;;;;;4.72;2.13;;;;;;;;;;5020758;28;25071;-71
2023/07/10 01:56:46;;;;;;;6.47;2.55;;;;;;;;;;5018934;28;25064;-71
2023/07/10 01:59:12;;;;;;;4.60;1.90;;;;;;;;;;5024441;28;25069;-70
2023/07/10 02:01:38;;;;;;;5.88;2.10;;;;;;;;;;5023513;28;25091;-70
2023/07/10 02:04:04;;;;;;;4.45;2.15;;;;;;;;;;5015492;28;25059;-71
2023/07/10 02:06:31;;;;;;;5.97;2.10;;;;;;;;;;5023185;28;25065;-71
2023/07/10 02:08:57;;;;;;;4.05;1.48;;;;;;;;;;5023797;28;25147;-72
2023/07/10 02:11:23;;;;;;;3.95;1.90;;;;;;;;;;5027651;28;25080;-70
2023/07/10 02:13:49;;;;;;;5.78;2.13;;;;;;;;;;5025808;28;25088;-69
2023/07/10 02:16:15;;;;;;;5.28;2.05;;;;;;;;;;5018415;28;25138;-70
2023/07/10 02:18:41;;;;;;;5.25;2.63;;;;;;;;;;5026208;28;25093;-70
2023/07/10 02:21:08;;;;;;;4.63;1.92;;;;;;;;;;5030232;28;25074;-70
2023/07/10 02:23:35;;;;;;;5.93;2.30;;;;;;;;;;5023406;28;25080;-70
2023/07/10 02:26:01;;;;;;;6.15;2.33;;;;;;;;;;5018446;28;25064;-70
2023/07/10 02:28:27;;;;;;;6.88;2.78;;;;;;;;;;5022684;28;25070;-73
2023/07/10 02:30:53;;;;;;;7.22;2.20;;;;;;;;;;5020471;28;25068;-71
2023/07/10 02:33:19;;;;;;;7.80;3.03;;;;;;;;;;5024406;28;25093;-70
2023/07/10 02:35:46;;;;;;;4.38;2.88;;;;;;;;;;5016644;28;25151;-70
2023/07/10 02:38:13;;;;;;;5.95;2.90;;;;;;;;;;5021868;28;25084;-70
2023/07/10 02:40:39;;;;;;;4.63;2.65;;;;;;;;;;5016092;28;25050;-70
2023/07/10 02:43:05;;;;;;;6.82;2.70;;;;;;;;;;5022145;28;25079;-71
2023/07/10 02:45:31;;;;;;;8.75;2.58;;;;;;;;;;5017498;28;25089;-72
2023/07/10 02:47:57;;;;;;;14.52;2.90;;;;;;;;;;5016158;28;25071;-70
2023/07/10 02:50:23;;;;;;;5.55;2.78;;;;;;;;;;5027578;28;25068;-70
2023/07/10 02:52:49;;;;;;;6.05;2.45;;;;;;;;;;5023201;28;25072;-70
2023/07/10 02:55:15;;;;;;;7.68;2.83;;;;;;;;;;5026544;28;25098;-70
2023/07/10 02:57:41;;;;;;;10.45;3.60;;;;;;;;;;5025390;28;25071;-70
2023/07/10 03:00:07;;;;;;;7.53;2.70;;;;;;;;;;5024362;28;25054;-71
2023/07/10 03:02:33;;;;;;;6.45;2.63;;;;;;;;;;5032669;28;25060;-69
2023/07/10 03:04:59;;;;;;;5.78;3.00;;;;;;;;;;5061249;28;25156;-70
2023/07/10 03:07:25;;;;;;;7.28;2.90;;;;;;;;;;5026825;28;25080;-70
2023/07/10 03:09:51;;;;;;;8.45;3.20;;;;;;;;;;5036666;28;25048;-71
2023/07/10 03:12:17;;;;;;;6.18;2.60;;;;;;;;;;5038767;28;25128;-70
2023/07/10 03:14:43;;;;;;;9.82;2.80;;;;;;;;;;5028875;28;25055;-70
2023/07/10 03:17:09;;;;;;;7.35;3.22;;;;;;;;;;5023911;28;25067;-69
2023/07/10 03:19:35;;;;;;;6.55;3.33;;;;;;;;;;5034965;28;25124;-70
2023/07/10 03:22:01;;;;;;;8.57;3.35;;;;;;;;;;5021927;28;25074;-70
2023/07/10 03:24:27;;;;;;;12.68;4.22;;;;;;;;;;5028930;28;25069;-70
2023/07/10 03:26:53;;;;;;;7.40;3.00;;;;;;;;;;5030096;28;25078;-70
2023/07/10 03:29:19;;;;;;;8.52;3.28;;;;;;;;;;5036655;28;25076;-70
2023/07/10 03:31:45;;;;;;;8.05;3.50;;;;;;;;;;5042337;28;25067;-70
2023/07/10 03:34:12;;;;;;;8.02;3.30;;;;;;;;;;5030140;28;25079;-70
2023/07/10 03:36:38;;;;;;;9.18;3.75;;;;;;;;;;5030139;28;25141;-70
2023/07/10 03:39:04;;;;;;;6.70;2.83;;;;;;;;;;5029439;28;25059;-70
2023/07/10 03:41:30;;;;;;;9.75;3.67;;;;;;;;;;5021356;28;25060;-69
2023/07/10 03:43:56;;;;;;;6.97;2.67;;;;;;;;;;5027577;28;25090;-69
2023/07/10 03:46:22;;;;;;;9.88;2.80;;;;;;;;;;5019252;28;25078;-70
2023/07/10 03:48:48;;;;;;;10.52;3.90;;;;;;;;;;5026056;28;25057;-71
2023/07/10 03:51:15;;;;;;;10.63;3.22;;;;;;;;;;5018404;28;25073;-71
2023/07/10 03:53:41;;;;;;;11.10;4.18;;;;;;;;;;5021631;28;25076;-71
2023/07/10 03:56:08;;;;;;;9.48;3.35;;;;;;;;;;5022471;28;25076;-71
2023/07/10 03:58:35;;;;;;;13.75;3.45;;;;;;;;;;5026511;28;25100;-69
2023/07/10 04:01:01;;;;;;;15.77;4.47;;;;;;;;;;5028695;28;25049;-73
2023/07/10 04:03:31;;;;;;;12.65;3.55;;;;;;;;;;5029318;28;25137;-70
2023/07/10 04:06:00;;;;;;;10.00;3.50;;;;;;;;;;5037233;28;25113;-70
2023/07/10 04:08:28;;;;;;;5.68;2.58;;;;;;;;;;5046990;28;25139;-70
2023/07/10 04:10:54;;;;;;;6.32;3.40;;;;;;;;;;5024250;28;25070;-71
2023/07/10 04:13:21;;;;;;;10.65;3.17;;;;;;;;;;5035367;28;25123;-71
2023/07/10 04:16:00;;;;;;;7.65;2.97;;;;;;;;;;5029563;28;25078;-68
2023/07/10 04:18:27;;;;;;;8.13;2.75;;;;;;;;;;5036304;28;25071;-70
2023/07/10 04:20:53;;;;;;;10.73;4.55;;;;;;;;;;5034426;28;25059;-71
2023/07/10 04:23:19;;;;;;;7.15;3.10;;;;;;;;;;5031488;28;25179;-70
2023/07/10 04:25:45;;;;;;;11.18;2.97;;;;;;;;;;5026918;28;25150;-69
2023/07/10 04:28:12;;;;;;;10.73;2.65;;;;;;;;;;5031350;28;25094;-71
2023/07/10 04:30:38;;;;;;;11.73;3.58;;;;;;;;;;5028943;28;25142;-70
2023/07/10 04:33:04;;;;;;;5.97;2.78;;;;;;;;;;5032895;28;25433;-71
2023/07/10 04:35:29;;;;;;;7.65;3.10;;;;;;;;;;5033122;28;25048;-71
2023/07/10 04:37:55;;;;;;;13.20;3.72;;;;;;;;;;5033972;28;25070;-71
2023/07/10 04:40:21;;;;;;;12.90;3.50;;;;;;;;;;5039481;28;25069;-70
2023/07/10 04:42:50;;;;;;;13.13;2.90;;;;;;;;;;5031368;28;25109;-72
2023/07/10 04:45:16;;;;;;;6.63;2.63;;;;;;;;;;5042877;28;25059;-71
2023/07/10 04:47:42;;;;;;;5.78;2.40;;;;;;;;;;5031799;28;25063;-70
2023/07/10 04:50:09;;;;;;;8.93;3.10;;;;;;;;;;5034645;28;25060;-70
2023/07/10 04:52:35;;;;;;;8.88;2.88;;;;;;;;;;5031546;28;25059;-71
2023/07/10 04:55:02;;;;;;;9.70;3.22;;;;;;;;;;5036614;28;25135;-71
2023/07/10 04:57:28;;;;;;;6.22;2.47;;;;;;;;;;5030155;28;25066;-71
2023/07/10 04:59:54;;;;;;;7.68;3.08;;;;;;;;;;5030563;28;25135;-70
2023/07/10 05:02:20;;;;;;;14.35;3.63;;;;;;;;;;5031118;28;25074;-71
2023/07/10 05:04:46;;;;;;;12.38;3.78;;;;;;;;;;5050682;28;25110;-72
2023/07/10 05:07:12;;;;;;;7.35;2.88;;;;;;;;;;5050709;28;25055;-71
2023/07/10 05:09:38;;;;;;;10.10;3.75;;;;;;;;;;5053127;28;25107;-71
2023/07/10 05:12:04;;;;;;;6.32;3.17;;;;;;;;;;5050215;28;25107;-72
2023/07/10 05:14:30;;;;;;;11.30;3.20;;;;;;;;;;5051304;28;25068;-73
2023/07/10 05:16:56;;;;;;;10.10;3.47;;;;;;;;;;5047622;28;25072;-73
2023/07/10 05:19:22;;;;;;;5.97;2.90;;;;;;;;;;5051140;28;25043;-71
2023/07/10 05:21:48;;;;;;;7.47;3.10;;;;;;;;;;5040182;28;25064;-72
2023/07/10 05:24:14;;;;;;;6.53;3.03;;;;;;;;;;5049312;28;25069;-70
2023/07/10 05:26:40;;;;;;;11.20;3.47;;;;;;;;;;5046283;28;25093;-72
2023/07/10 05:29:06;;;;;;;11.05;3.67;;;;;;;;;;5061509;28;25105;-71
2023/07/10 05:31:32;;;;;;;9.30;2.92;;;;;;;;;;5058503;28;25056;-72
2023/07/10 05:33:58;;;;;;;11.75;3.70;;;;;;;;;;5058593;28;25051;-72
2023/07/10 05:36:24;;;;;;;10.55;3.47;;;;;;;;;;5058657;28;25072;-72
2023/07/10 05:38:50;;;;;;;17.02;5.05;;;;;;;;;;5049925;28;25067;-71
2023/07/10 05:41:17;;;;;;;19.02;4.55;;;;;;;;;;5041793;28;25072;-71
2023/07/10 05:43:43;;;;;;;8.57;3.40;;;;;;;;;;5043268;28;25078;-70
2023/07/10 05:46:09;;;;;;;16.77;4.88;;;;;;;;;;5036750;28;25101;-71
2023/07/10 05:48:35;;;;;;;9.63;3.63;;;;;;;;;;5038516;28;25041;-71
2023/07/10 05:51:01;;;;;;;8.85;2.90;;;;;;;;;;5050317;28;25067;-71
2023/07/10 05:53:27;;;;;;;7.28;3.65;;;;;;;;;;5041964;28;25058;-72
2023/07/10 05:55:55;;;;;;;8.15;3.67;;;;;;;;;;5038480;28;25055;-72
2023/07/10 05:58:23;;;;;;;9.40;3.60;;;;;;;;;;5039386;28;25156;-72
2023/07/10 06:00:50;;;;;;;7.18;3.65;;;;;;;;;;5044723;28;25081;-76
2023/07/10 06:03:16;;;;;;;7.65;4.38;;;;;;;;;;5045477;28;25113;-74
2023/07/10 06:05:42;;;;;;;14.45;3.97;;;;;;;;;;5051390;28;25150;-73
2023/07/10 06:08:09;;;;;;;10.80;4.15;;;;;;;;;;5044829;28;25113;-72
2023/07/10 06:10:35;;;;;;;13.30;4.00;;;;;;;;;;5051377;28;25117;-76
2023/07/10 06:13:01;;;;;;;16.98;4.70;;;;;;;;;;5039170;28;25142;-70
2023/07/10 06:15:27;;;;;;;7.80;3.13;;;;;;;;;;5052114;28;25052;-73
2023/07/10 06:17:53;;;;;;;11.20;3.47;;;;;;;;;;5053153;28;25051;-72
2023/07/10 06:20:19;;;;;;;8.88;3.20;;;;;;;;;;5045992;28;25069;-72
2023/07/10 06:22:45;;;;;;;9.10;2.97;;;;;;;;;;5051930;28;25056;-75
2023/07/10 06:25:11;;;;;;;14.73;3.38;;;;;;;;;;5032935;28;25133;-72
2023/07/10 06:27:37;;;;;;;5.50;2.97;;;;;;;;;;5032070;28;25068;-73
2023/07/10 06:30:03;;;;;;;13.65;2.38;;;;;;;;;;5030590;28;25153;-74
2023/07/10 06:32:31;;;;;;;10.88;3.83;;;;;;;;;;5023068;28;25083;-72
2023/07/10 06:34:56;;;;;;;5.57;2.20;;;;;;;;;;5023068;28;25069;-73
2023/07/10 06:37:22;;;;;;;12.55;2.55;;;;;;;;;;5018916;28;25122;-71
2023/07/10 06:40:08;;;;;;;8.43;2.28;;;;;;;;;;5028534;28;25109;-72
2023/07/10 06:42:34;;;;;;;9.65;2.67;;;;;;;;;;5018114;28;25102;-73
2023/07/10 06:45:00;;;;;;;6.35;2.20;;;;;;;;;;5031057;28;25069;-76
2023/07/10 06:47:26;;;;;;;11.23;2.05;;;;;;;;;;5026034;28;25083;-73
2023/07/10 06:49:52;;;;;;;7.18;2.47;;;;;;;;;;5024404;28;25067;-75
2023/07/10 06:52:18;;;;;;;6.78;2.55;;;;;;;;;;5030646;28;25049;-73
2023/07/10 06:54:44;;;;;;;12.07;2.25;;;;;;;;;;5040877;28;25066;-73
2023/07/10 06:57:10;;;;;;;8.07;1.98;;;;;;;;;;5037555;28;25058;-72
2023/07/10 06:59:36;;;;;;;7.32;2.65;;;;;;;;;;5029838;28;25116;-70
2023/07/10 07:02:02;;;;;;;7.35;2.25;;;;;;;;;;5023269;28;25065;-71
2023/07/10 07:04:28;;;;;;;5.22;1.85;;;;;;;;;;5027287;28;25078;-73
2023/07/10 07:06:54;;;;;;;10.35;2.53;;;;;;;;;;5026946;28;25052;-72
2023/07/10 07:09:20;;;;;;;11.45;2.83;;;;;;;;;;5028148;28;25129;-73
2023/07/10 07:11:46;;;;;;;12.15;3.40;;;;;;;;;;5025488;28;25081;-76
2023/07/10 07:14:12;;;;;;;13.68;2.63;;;;;;;;;;5046834;28;25074;-73
2023/07/10 07:16:38;;;;;;;9.32;2.47;;;;;;;;;;5043250;28;25131;-70
2023/07/10 07:19:04;;;;;;;6.93;1.63;;;;;;;;;;5039197;28;25053;-72
2023/07/10 07:21:30;;;;;;;4.28;1.75;;;;;;;;;;5033942;28;25062;-72
2023/07/10 07:23:56;;;;;;;9.57;1.90;;;;;;;;;;5020221;28;25054;-72
2023/07/10 07:26:24;;;;;;;7.47;2.10;;;;;;;;;;5026455;28;25089;-72
2023/07/10 07:28:50;;;;;;;8.52;2.47;;;;;;;;;;5025053;28;25110;-71
2023/07/10 07:31:16;;;;;;;6.78;1.70;;;;;;;;;;5024037;28;25107;-73
2023/07/10 07:33:42;;;;;;;10.18;2.33;;;;;;;;;;5030731;28;25066;-73
2023/07/10 07:36:08;;;;;;;11.43;1.80;;;;;;;;;;5019810;28;25086;-71
2023/07/10 07:38:34;;;;;;;9.55;2.40;;;;;;;;;;5024392;28;25135;-70
2023/07/10 07:41:00;;;;;;;5.97;1.90;;;;;;;;;;5020789;28;25076;-72
2023/07/10 07:43:28;;;;;;;10.55;1.90;;;;;;;;;;5027263;28;25133;-72
2023/07/10 07:45:54;;;;;;;6.45;2.58;;;;;;;;;;5019441;28;25110;-72
2023/07/10 07:48:21;;;;;;;7.38;2.35;;;;;;;;;;5022927;28;25058;-71
2023/07/10 07:50:59;;;;;;;7.18;2.00;;;;;;;;;;5019317;28;25106;-70
2023/07/10 07:53:26;;;;;;;6.57;2.53;;;;;;;;;;5022680;28;25089;-73
2023/07/10 07:55:52;;;;;;;9.70;2.15;;;;;;;;;;5016831;28;25118;-71
2023/07/10 07:58:18;;;;;;;7.35;2.13;;;;;;;;;;5021430;28;25097;-72
2023/07/10 08:00:44;;;;;;;8.90;2.05;;;;;;;;;;5022615;28;25064;-75
2023/07/10 08:03:10;;;;;;;6.70;2.03;;;;;;;;;;5025799;28;25056;-72
2023/07/10 08:05:37;;;;;;;5.43;2.15;;;;;;;;;;5017866;28;25120;-73
2023/07/10 08:08:07;;;;;;;7.65;1.88;;;;;;;;;;5025154;28;25080;-72
2023/07/10 08:10:37;;;;;;;6.95;1.48;;;;;;;;;;5028238;28;25162;-71
2023/07/10 08:13:04;;;;;;;10.38;2.25;;;;;;;;;;5022083;28;25071;-70
2023/07/10 08:15:30;;;;;;;7.85;1.60;;;;;;;;;;5028247;28;25128;-72
2023/07/10 08:17:56;;;;;;;7.10;1.63;;;;;;;;;;5025817;28;25093;-71
2023/07/10 08:20:22;;;;;;;6.95;1.98;;;;;;;;;;5030049;28;25099;-73
2023/07/10 08:22:48;;;;;;;10.70;1.98;;;;;;;;;;5024420;28;25077;-73
2023/07/10 08:25:14;;;;;;;7.53;2.25;;;;;;;;;;5022805;28;25063;-72
2023/07/10 08:27:41;;;;;;;8.98;2.25;;;;;;;;;;5023433;28;25082;-72
2023/07/10 08:30:08;;;;;;;7.00;1.67;;;;;;;;;;5017415;28;25054;-72
2023/07/10 08:32:34;;;;;;;7.10;1.80;;;;;;;;;;5025657;28;25066;-73
2023/07/10 08:35:00;;;;;;;5.45;1.92;;;;;;;;;;5026316;28;25058;-71
2023/07/10 08:37:26;;;;;;;6.60;1.90;;;;;;;;;;5018171;28;25056;-72
2023/07/10 08:39:52;;;;;;;13.93;1.73;;;;;;;;;;5026291;28;25077;-72
2023/07/10 08:42:20;;;;;;;4.35;1.17;;;;;;;;;;5027465;28;25065;-74
2023/07/10 08:44:48;;;;;;;2.95;1.50;;;;;;;;;;5030725;28;25144;-71
2023/07/10 08:47:24;;;;;;;8.95;1.85;;;;;;;;;;5050583;28;25076;-76
2023/07/10 08:50:19;;;;;;;8.55;1.70;;;;;;;;;;5037527;28;25062;-73
2023/07/10 08:52:51;;;;;;;5.28;1.55;;;;;;;;;;5031143;28;25078;-74
2023/07/10 08:55:27;;;;;;;4.63;1.40;;;;;;;;;;5048248;28;25073;-72
2023/07/10 08:58:03;;;;;;;4.57;1.50;;;;;;;;;;5049530;28;25048;-73
2023/07/10 09:00:33;;;;;;;13.05;2.78;;;;;;;;;;5049450;28;25070;-73
2023/07/10 09:03:04;;;;;;;8.00;1.88;;;;;;;;;;5046058;28;25059;-71
2023/07/10 09:05:32;;;;;;;6.22;2.03;;;;;;;;;;5038302;28;25068;-73
2023/07/10 09:08:04;;;;;;;8.30;1.50;;;;;;;;;;5040623;28;25103;-73
2023/07/10 09:10:32;;;;;;;7.80;1.80;;;;;;;;;;5043300;28;25156;-75
2023/07/10 09:13:00;;;;;;;8.77;1.58;;;;;;;;;;5041957;28;25062;-74
2023/07/10 09:15:31;;;;;;;5.68;1.30;;;;;;;;;;5045619;28;25072;-72
2023/07/10 09:18:03;;;;;;;4.53;1.50;;;;;;;;;;5039282;28;25068;-75
2023/07/10 09:20:29;;;;;;;;;;;;;;;;;;5045769;28;25134;-73
2023/07/10 09:22:57;;;;;;;5.15;1.23;;;;;;;;;;5029514;28;25065;-73
2023/07/10 09:25:24;;;;;;;5.70;1.48;;;;;;;;;;5027244;28;25062;-75
2023/07/10 09:27:50;;;;;;;8.20;1.63;;;;;;;;;;5031843;28;25065;-72
2023/07/10 09:30:39;;;;;;;8.20;1.50;;;;;;;;;;5024466;28;25081;-74
2023/07/10 09:33:08;;;;;;;6.18;1.30;;;;;;;;;;5027474;28;25129;-74
2023/07/10 09:35:35;;;;;;;6.00;2.25;;;;;;;;;;5026689;28;25067;-71
2023/07/10 09:38:01;;;;;;;10.13;1.77;;;;;;;;;;5024036;28;25072;-76
2023/07/10 09:40:35;;;;;;;6.55;1.70;;;;;;;;;;5026534;28;25146;-74
2023/07/10 09:43:06;;;;;;;6.80;1.27;;;;;;;;;;5033791;28;25094;-74
2023/07/10 09:45:33;;;;;;;6.85;1.73;;;;;;;;;;5033561;28;25090;-78
2023/07/10 09:47:59;;;;;;;6.57;1.60;;;;;;;;;;5020147;28;25144;-72
2023/07/10 09:50:25;;;;;;;4.70;1.45;;;;;;;;;;5032042;28;25054;-72
2023/07/10 09:52:53;;;;;;;5.88;1.60;;;;;;;;;;5029013;28;25084;-72
2023/07/10 09:55:19;;;;;;;6.35;1.67;;;;;;;;;;5029257;28;25083;-74
2023/07/10 09:57:48;;;;;;;8.13;1.65;;;;;;;;;;5029696;28;25076;-72
2023/07/10 10:00:20;;;;;;;8.25;1.60;;;;;;;;;;5029452;28;25067;-72
2023/07/10 10:02:49;;;;;;;10.48;1.63;;;;;;;;;;5023654;28;25070;-73
2023/07/10 10:05:19;;;;;;;4.63;1.55;;;;;;;;;;5031780;28;25086;-73
2023/07/10 10:07:46;;;;;;;7.25;1.85;;;;;;;;;;5028844;28;25058;-74
2023/07/10 10:10:19;;;;;;;10.57;1.60;;;;;;;;;;5027257;28;25054;-72
2023/07/10 10:12:48;;;;;;;7.40;1.88;;;;;;;;;;5022333;28;25038;-74
2023/07/10 10:15:26;;;;;;;6.38;1.90;;;;;;;;;;5028356;28;25060;-75
2023/07/10 10:17:53;;;;;;;11.05;2.20;;;;;;;;;;5026036;28;25075;-73
2023/07/10 10:20:26;;;;;;;8.23;1.92;;;;;;;;;;5026327;28;25068;-75
2023/07/10 10:22:52;;;;;;;6.50;1.63;;;;;;;;;;5039484;28;25068;-72
2023/07/10 10:25:19;;;;;;;5.70;1.30;;;;;;;;;;5031207;28;25062;-71
2023/07/10 10:28:21;;;;;;;5.13;1.27;;;;;;;;;;5024608;28;25167;-73
2023/07/10 10:30:52;;;;;;;7.43;1.48;;;;;;;;;;4976205;28;25137;-73
2023/07/10 10:33:27;;;;;;;4.75;1.58;;;;;;;;;;5019230;28;25120;-73
2023/07/10 10:35:54;;;;;;;5.85;1.90;;;;;;;;;;5025966;28;25079;-73
2023/07/10 10:38:26;;;;;;;8.10;1.80;;;;;;;;;;5027061;28;25058;-74
2023/07/10 10:40:52;;;;;;;8.10;2.13;;;;;;;;;;5025097;28;25059;-73
2023/07/10 10:43:34;;;;;;;9.02;2.08;;;;;;;;;;5028362;28;25062;-74
2023/07/10 10:46:14;;;;;;;6.63;2.45;;;;;;;;;;5023277;28;25110;-74
2023/07/10 10:48:53;;;;;;;8.38;1.60;;;;;;;;;;5023694;28;25059;-74
2023/07/10 10:51:35;;;;;;;7.75;1.60;;;;;;;;;;5026745;28;25055;-75
2023/07/10 10:54:13;;;;;;;2.10;1.10;;;;;;;;;;5033346;28;25073;-76
2023/07/10 10:56:43;;;;;;;6.00;1.75;;;;;;;;;;5026045;28;25070;-77
2023/07/10 10:59:14;;;;;;;8.57;1.90;;;;;;;;;;5032673;28;25134;-75
2023/07/10 11:01:59;;;;;;;4.20;1.00;;;;;;;;;;5021630;28;25074;-74
2023/07/10 11:04:38;;;;;;;4.57;1.50;;;;;;;;;;5021926;28;25099;-73
2023/07/10 11:07:05;;;;;;;6.85;1.98;;;;;;;;;;5016822;28;25088;-74
2023/07/10 11:09:31;;;;;;;8.35;1.48;;;;;;;;;;5034260;28;25061;-73
2023/07/10 11:11:58;;;;;;;7.93;1.95;;;;;;;;;;5018599;28;25058;-73
2023/07/10 11:14:25;;;;;;;6.00;1.33;;;;;;;;;;5040227;28;25079;-75
2023/07/10 11:16:51;;;;;;;8.25;1.88;;;;;;;;;;5019474;28;25057;-74
2023/07/10 11:19:20;;;;;;;6.95;1.52;;;;;;;;;;5021681;28;25124;-73
2023/07/10 11:21:46;;;;;;;7.78;1.75;;;;;;;;;;5022461;28;25063;-78
2023/07/10 11:24:17;;;;;;;5.03;2.05;;;;;;;;;;5026162;28;25099;-75
2023/07/10 11:26:50;;;;;;;9.63;1.93;;;;;;;;;;5030152;28;25059;-79
2023/07/10 11:29:29;;;;;;;3.00;1.25;;;;;;;;;;5046510;28;25122;-76
2023/07/10 11:31:56;;;;;;;8.10;1.77;;;;;;;;;;5053685;28;25059;-78
2023/07/10 11:34:22;;;;;;;9.13;1.20;;;;;;;;;;5040563;28;25144;-75
2023/07/10 11:36:51;;;;;;;7.68;1.73;;;;;;;;;;5036441;28;25100;-78
2023/07/10 11:39:17;;;;;;;8.48;1.83;;;;;;;;;;5037508;28;25060;-76
2023/07/10 11:41:43;;;;;;;6.25;1.50;;;;;;;;;;5045204;28;25060;-75
2023/07/10 11:44:15;;;;;;;3.53;1.33;;;;;;;;;;5049531;28;25073;-75
2023/07/10 11:46:41;;;;;;;;;;;;;;;;;;5047997;28;25092;-74
2023/07/10 11:49:15;;;;;;;6.93;1.88;;;;;;;;;;5038577;28;24080;-76
2023/07/10 11:51:41;;;;;;;7.60;1.60;;;;;;;;;;5026835;28;25069;-72
2023/07/10 11:54:07;;;;;;;7.32;1.38;;;;;;;;;;5025513;28;25051;-75
2023/07/10 11:56:33;;;;;;;4.90;1.85;;;;;;;;;;5022645;28;25063;-76
2023/07/10 11:59:00;;;;;;;8.35;2.15;;;;;;;;;;5020075;28;25056;-74
2023/07/10 12:01:30;;;;;;;8.65;1.75;;;;;;;;;;5015755;28;25049;-77
2023/07/10 12:03:56;;;;;;;7.70;1.80;;;;;;;;;;5024056;28;25062;-73
2023/07/10 12:06:24;;;;;;;10.20;1.65;;;;;;;;;;5023480;28;25122;-74
2023/07/10 12:08:51;;;;;;;5.85;1.90;;;;;;;;;;5028532;28;25149;-74
2023/07/10 12:11:29;;;;;;;4.75;1.52;;;;;;;;;;5021095;28;25155;-77
2023/07/10 12:13:55;;;;;;;5.60;1.70;;;;;;;;;;5022575;28;25119;-76
2023/07/10 12:16:22;;;;;;;3.63;1.48;;;;;;;;;;5013941;28;25070;-75
2023/07/10 12:18:48;;;;;;;3.78;1.00;;;;;;;;;;5025443;28;25155;-74
2023/07/10 12:21:21;;;;;;;10.73;2.92;;;;;;;;;;5035785;28;25078;-74
2023/07/10 12:23:54;;;;;;;7.28;2.15;;;;;;;;;;5031300;28;25071;-75
2023/07/10 12:26:20;;;;;;;5.35;1.73;;;;;;;;;;5030214;28;25148;-74
2023/07/10 12:28:46;;;;;;;8.45;1.85;;;;;;;;;;5027732;28;25059;-75
2023/07/10 12:31:14;;;;;;;3.95;1.40;;;;;;;;;;5039902;28;25136;-73
2023/07/10 12:33:45;;;;;;;9.77;1.58;;;;;;;;;;5032109;28;25056;-73
2023/07/10 12:36:30;;;;;;;7.97;1.48;;;;;;;;;;5025462;28;25137;-73
2023/07/10 12:38:58;;;;;;;4.82;1.42;;;;;;;;;;5022242;28;25123;-72
2023/07/10 12:41:24;;;;;;;6.45;1.90;;;;;;;;;;5025586;28;25095;-73
2023/07/10 12:43:54;;;;;;;5.30;1.38;;;;;;;;;;5031627;28;25085;-74
2023/07/10 12:46:24;;;;;;;7.22;1.63;;;;;;;;;;5048175;28;25526;-71
2023/07/10 12:48:54;;;;;;;7.25;1.80;;;;;;;;;;5023203;28;25098;-74
2023/07/10 12:51:32;;;;;;;9.32;1.55;;;;;;;;;;5029630;28;25067;-73
2023/07/10 12:53:59;;;;;;;7.35;1.50;;;;;;;;;;5022235;28;25079;-74
2023/07/10 12:56:26;;;;;;;5.18;1.52;;;;;;;;;;5025232;28;25061;-73
2023/07/10 12:58:54;;;;;;;9.70;1.58;;;;;;;;;;5015892;28;25077;-74
2023/07/10 13:01:23;;;;;;;5.68;1.50;;;;;;;;;;5015953;28;25054;-74
2023/07/10 13:04:04;;;;;;;7.18;1.98;;;;;;;;;;5016893;28;25085;-73
2023/07/10 13:06:31;;;;;;;6.80;1.85;;;;;;;;;;5012053;28;25058;-73
2023/07/10 13:08:58;;;;;;;5.07;1.80;;;;;;;;;;5019779;28;25141;-74
2023/07/10 13:11:28;;;;;;;5.18;1.77;;;;;;;;;;5027386;28;25060;-74
2023/07/10 13:13:55;;;;;;;7.22;1.83;;;;;;;;;;5017698;28;25087;-75
2023/07/10 13:16:22;;;;;;;6.57;2.00;;;;;;;;;;5026216;28;25054;-74
2023/07/10 13:18:48;;;;;;;6.47;1.83;;;;;;;;;;5036556;28;25120;-74
2023/07/10 13:21:16;;;;;;;9.65;1.77;;;;;;;;;;5035469;28;25091;-75
2023/07/10 13:23:42;;;;;;;5.05;1.58;;;;;;;;;;5023195;28;25062;-71
2023/07/10 13:26:15;;;;;;;7.10;1.98;;;;;;;;;;5024032;28;25057;-73
2023/07/10 13:28:41;;;;;;;6.47;1.90;;;;;;;;;;5041990;28;25104;-76
2023/07/10 13:31:07;;;;;;;5.70;1.88;;;;;;;;;;5022000;28;25061;-76
2023/07/10 13:33:33;;;;;;;6.45;1.48;;;;;;;;;;5019854;28;26207;-75
2023/07/10 13:35:59;;;;;;;7.22;2.08;;;;;;;;;;5023831;28;25109;-75
2023/07/10 13:38:26;;;;;;;10.43;2.10;;;;;;;;;;5018840;28;25080;-72
2023/07/10 13:40:52;;;;;;;4.40;1.50;;;;;;;;;;5015981;28;25086;-75
2023/07/10 13:43:19;;;;;;;5.68;1.55;;;;;;;;;;5023002;28;25135;-76
2023/07/10 13:45:46;;;;;;;5.50;1.77;;;;;;;;;;5045944;28;25072;-75
2023/07/10 13:48:14;;;;;;;5.40;1.88;;;;;;;;;;5038492;28;25312;-75
2023/07/10 13:50:40;;;;;;;7.30;2.05;;;;;;;;;;5040127;28;25072;-74
2023/07/10 13:53:06;;;;;;;7.85;1.95;;;;;;;;;;5027797;28;25084;-73
2023/07/10 13:55:33;;;;;;;4.25;1.70;;;;;;;;;;5035184;28;25065;-73
2023/07/10 13:57:59;;;;;;;5.60;1.40;;;;;;;;;;5025487;28;25048;-73
2023/07/10 14:00:25;;;;;;;6.22;1.70;;;;;;;;;;5026626;28;25079;-73
2023/07/10 14:02:51;;;;;;;7.20;1.70;;;;;;;;;;5022626;28;25127;-72
2023/07/10 14:05:19;;;;;;;8.18;1.67;;;;;;;;;;5018016;28;25067;-74
2023/07/10 14:07:45;;;;;;;5.60;1.77;;;;;;;;;;5020157;28;25141;-72
2023/07/10 14:10:20;;;;;;;6.35;1.50;;;;;;;;;;5010795;28;25089;-74
2023/07/10 14:12:46;;;;;;;6.72;1.70;;;;;;;;;;5012769;28;25083;-76
2023/07/10 14:15:19;;;;;;;9.00;1.80;;;;;;;;;;5015441;28;25073;-77
2023/07/10 14:17:46;;;;;;;5.70;1.95;;;;;;;;;;5021506;28;25066;-75
2023/07/10 14:20:16;;;;;;;6.03;1.70;;;;;;;;;;5023399;28;25082;-75
2023/07/10 14:22:42;;;;;;;5.95;1.40;;;;;;;;;;5019766;28;25075;-75
2023/07/10 14:25:12;;;;;;;5.93;1.55;;;;;;;;;;5018802;28;25041;-73
2023/07/10 14:27:38;;;;;;;11.02;2.08;;;;;;;;;;5015515;28;25068;-74
2023/07/10 14:30:04;;;;;;;3.80;1.48;;;;;;;;;;5017323;28;25141;-73
2023/07/10 14:32:30;;;;;;;8.98;2.30;;;;;;;;;;5020351;28;25064;-75
2023/07/10 14:34:56;;;;;;;7.50;2.08;;;;;;;;;;5021731;28;25067;-74
2023/07/10 14:37:24;;;;;;;5.53;2.10;;;;;;;;;;5021299;28;25074;-71
2023/07/10 14:39:50;;;;;;;5.35;1.80;;;;;;;;;;5010453;28;25067;-77
2023/07/10 14:42:16;;;;;;;7.05;1.70;;;;;;;;;;5020037;28;25069;-75
2023/07/10 14:44:43;;;;;;;6.97;1.98;;;;;;;;;;5015824;28;25058;-76